sensor_id;sensor_type;location;lat;lon;timestamp;pressure;altitude;pressure_sealevel;temperature;humidity
69145;BME280;56251;50.324;17.574;2023-06-22T00:00:15;102086.80;;;23.60;76.59
69145;BME280;56251;50.324;17.574;2023-06-22T00:02:40;102090.59;;;23.70;76.39
69145;BME280;56251;50.324;17.574;2023-06-22T00:03:23;102087.27;;;23.70;76.43
69145;BME280;56251;50.324;17.574;2023-06-22T00:05:47;102092.86;;;23.64;76.64
69145;BME280;56251;50.324;17.574;2023-06-22T00:06:30;102092.23;;;23.63;76.78
69145;BME280;56251;50.324;17.574;2023-06-22T00:08:53;102094.66;;;23.67;76.84
69145;BME280;56251;50.324;17.574;2023-06-22T00:09:37;102097.73;;;23.67;76.74
69145;BME280;56251;50.324;17.574;2023-06-22T00:12:00;102097.75;;;23.64;76.82
69145;BME280;56251;50.324;17.574;2023-06-22T00:12:48;102096.95;;;23.67;76.71
69145;BME280;56251;50.324;17.574;2023-06-22T00:15:06;102101.83;;;23.66;76.93
69145;BME280;56251;50.324;17.574;2023-06-22T00:15:54;102101.42;;;23.69;76.76
69145;BME280;56251;50.324;17.574;2023-06-22T00:18:13;102105.05;;;23.59;77.02
69145;BME280;56251;50.324;17.574;2023-06-22T00:19:01;102105.77;;;23.54;77.27
69145;BME280;56251;50.324;17.574;2023-06-22T00:21:19;102108.70;;;23.59;77.07
69145;BME280;56251;50.324;17.574;2023-06-22T00:22:09;102105.06;;;23.63;77.00
69145;BME280;56251;50.324;17.574;2023-06-22T00:24:28;102100.52;;;23.73;76.74
69145;BME280;56251;50.324;17.574;2023-06-22T00:25:15;102101.10;;;23.73;76.75
69145;BME280;56251;50.324;17.574;2023-06-22T00:27:35;102106.12;;;23.71;76.76
69145;BME280;56251;50.324;17.574;2023-06-22T00:28:21;102105.13;;;23.73;76.69
69145;BME280;56251;50.324;17.574;2023-06-22T00:30:41;102106.52;;;23.81;76.71
69145;BME280;56251;50.324;17.574;2023-06-22T00:31:27;102104.94;;;23.79;76.76
69145;BME280;56251;50.324;17.574;2023-06-22T00:33:52;102109.86;;;23.79;76.63
69145;BME280;56251;50.324;17.574;2023-06-22T00:34:33;102108.72;;;23.74;76.77
69145;BME280;56251;50.324;17.574;2023-06-22T00:36:58;102109.59;;;23.87;76.35
69145;BME280;56251;50.324;17.574;2023-06-22T00:37:40;102113.19;;;23.92;76.29
69145;BME280;56251;50.324;17.574;2023-06-22T00:40:07;102119.35;;;23.82;76.45
69145;BME280;56251;50.324;17.574;2023-06-22T00:40:49;102120.14;;;23.83;76.42
69145;BME280;56251;50.324;17.574;2023-06-22T00:43:15;102124.43;;;23.90;76.33
69145;BME280;56251;50.324;17.574;2023-06-22T00:43:55;102129.22;;;23.90;76.30
69145;BME280;56251;50.324;17.574;2023-06-22T00:46:22;102127.88;;;24.01;75.97
69145;BME280;56251;50.324;17.574;2023-06-22T00:47:06;102128.88;;;23.94;76.17
69145;BME280;56251;50.324;17.574;2023-06-22T00:49:29;102133.55;;;24.10;75.86
69145;BME280;56251;50.324;17.574;2023-06-22T00:50:15;102131.40;;;23.99;75.89
69145;BME280;56251;50.324;17.574;2023-06-22T00:52:36;102135.21;;;24.08;75.77
69145;BME280;56251;50.324;17.574;2023-06-22T00:53:24;102136.12;;;23.99;75.99
69145;BME280;56251;50.324;17.574;2023-06-22T00:55:43;102135.65;;;24.04;76.01
69145;BME280;56251;50.324;17.574;2023-06-22T00:56:30;102139.70;;;24.10;75.90
69145;BME280;56251;50.324;17.574;2023-06-22T00:58:51;102138.02;;;24.09;75.88
69145;BME280;56251;50.324;17.574;2023-06-22T00:59:38;102136.98;;;24.09;75.79
69145;BME280;56251;50.324;17.574;2023-06-22T01:01:59;102134.21;;;24.05;75.79
69145;BME280;56251;50.324;17.574;2023-06-22T01:02:45;102127.68;;;24.08;75.66
69145;BME280;56251;50.324;17.574;2023-06-22T01:05:06;102127.19;;;23.99;76.12
69145;BME280;56251;50.324;17.574;2023-06-22T01:05:58;102126.10;;;24.03;75.95
69145;BME280;56251;50.324;17.574;2023-06-22T01:08:24;102125.63;;;24.04;75.83
69145;BME280;56251;50.324;17.574;2023-06-22T01:09:10;102124.34;;;24.07;75.69
69145;BME280;56251;50.324;17.574;2023-06-22T01:11:41;102120.91;;;23.95;76.00
69145;BME280;56251;50.324;17.574;2023-06-22T01:12:15;102120.78;;;23.98;76.08
69145;BME280;56251;50.324;17.574;2023-06-22T01:14:42;102121.33;;;24.10;75.44
69145;BME280;56251;50.324;17.574;2023-06-22T01:17:48;102120.99;;;24.00;75.75
69145;BME280;56251;50.324;17.574;2023-06-22T01:18:37;102122.13;;;24.02;75.77
69145;BME280;56251;50.324;17.574;2023-06-22T01:20:56;102117.54;;;23.97;75.95
69145;BME280;56251;50.324;17.574;2023-06-22T01:21:51;102120.17;;;23.96;75.92
69145;BME280;56251;50.324;17.574;2023-06-22T01:25:19;102123.84;;;23.91;76.17
69145;BME280;56251;50.324;17.574;2023-06-22T01:27:38;102124.99;;;23.99;75.88
69145;BME280;56251;50.324;17.574;2023-06-22T01:30:42;102134.90;;;24.06;75.68
69145;BME280;56251;50.324;17.574;2023-06-22T01:31:48;102128.95;;;24.04;75.64
69145;BME280;56251;50.324;17.574;2023-06-22T01:33:53;102132.44;;;24.03;75.44
69145;BME280;56251;50.324;17.574;2023-06-22T01:34:56;102133.28;;;24.03;75.18
69145;BME280;56251;50.324;17.574;2023-06-22T01:37:00;102131.91;;;23.97;75.17
69145;BME280;56251;50.324;17.574;2023-06-22T01:38:03;102135.23;;;23.99;75.22
69145;BME280;56251;50.324;17.574;2023-06-22T01:40:08;102134.45;;;24.02;75.02
69145;BME280;56251;50.324;17.574;2023-06-22T01:41:11;102141.48;;;24.09;74.79
69145;BME280;56251;50.324;17.574;2023-06-22T01:43:15;102132.34;;;24.11;74.66
69145;BME280;56251;50.324;17.574;2023-06-22T01:44:20;102131.87;;;24.13;74.45
69145;BME280;56251;50.324;17.574;2023-06-22T01:46:22;102131.38;;;24.09;74.40
69145;BME280;56251;50.324;17.574;2023-06-22T01:47:27;102130.21;;;24.07;74.40
69145;BME280;56251;50.324;17.574;2023-06-22T01:49:29;102134.22;;;24.10;74.21
69145;BME280;56251;50.324;17.574;2023-06-22T01:50:34;102133.23;;;24.09;74.06
69145;BME280;56251;50.324;17.574;2023-06-22T01:52:36;102136.73;;;24.03;74.10
69145;BME280;56251;50.324;17.574;2023-06-22T01:53:40;102138.24;;;24.02;74.23
69145;BME280;56251;50.324;17.574;2023-06-22T01:55:43;102136.47;;;24.04;74.35
69145;BME280;56251;50.324;17.574;2023-06-22T01:56:47;102136.48;;;23.97;74.48
69145;BME280;56251;50.324;17.574;2023-06-22T01:58:57;102143.03;;;24.03;74.54
69145;BME280;56251;50.324;17.574;2023-06-22T02:00:02;102141.80;;;24.01;74.57
69145;BME280;56251;50.324;17.574;2023-06-22T02:02:04;102143.09;;;23.85;75.12
69145;BME280;56251;50.324;17.574;2023-06-22T02:03:13;102142.91;;;23.87;75.03
69145;BME280;56251;50.324;17.574;2023-06-22T02:05:11;102139.61;;;23.94;74.85
69145;BME280;56251;50.324;17.574;2023-06-22T02:06:27;102139.42;;;23.97;74.88
69145;BME280;56251;50.324;17.574;2023-06-22T02:08:25;102144.64;;;23.81;75.09
69145;BME280;56251;50.324;17.574;2023-06-22T02:09:33;102146.66;;;23.79;75.20
69145;BME280;56251;50.324;17.574;2023-06-22T02:11:29;102150.04;;;23.83;75.26
69145;BME280;56251;50.324;17.574;2023-06-22T02:12:41;102149.45;;;23.83;75.31
69145;BME280;56251;50.324;17.574;2023-06-22T02:14:36;102152.48;;;23.83;75.08
69145;BME280;56251;50.324;17.574;2023-06-22T02:15:48;102148.45;;;23.83;74.97
69145;BME280;56251;50.324;17.574;2023-06-22T02:17:43;102152.11;;;23.83;74.86
69145;BME280;56251;50.324;17.574;2023-06-22T02:18:54;102152.78;;;23.82;74.80
69145;BME280;56251;50.324;17.574;2023-06-22T02:20:50;102152.91;;;23.82;74.73
69145;BME280;56251;50.324;17.574;2023-06-22T02:22:00;102153.77;;;23.82;74.64
69145;BME280;56251;50.324;17.574;2023-06-22T02:23:57;102150.55;;;23.67;75.12
69145;BME280;56251;50.324;17.574;2023-06-22T02:25:07;102151.19;;;23.59;75.29
69145;BME280;56251;50.324;17.574;2023-06-22T02:27:03;102147.62;;;23.63;75.28
69145;BME280;56251;50.324;17.574;2023-06-22T02:28:14;102151.97;;;23.52;75.68
69145;BME280;56251;50.324;17.574;2023-06-22T02:30:13;102146.66;;;23.52;75.77
69145;BME280;56251;50.324;17.574;2023-06-22T02:31:20;102147.92;;;23.48;75.87
69145;BME280;56251;50.324;17.574;2023-06-22T02:33:21;102150.43;;;23.50;75.98
69145;BME280;56251;50.324;17.574;2023-06-22T02:34:26;102150.95;;;23.52;75.91
69145;BME280;56251;50.324;17.574;2023-06-22T02:36:33;102153.51;;;23.52;75.99
69145;BME280;56251;50.324;17.574;2023-06-22T02:37:32;102151.51;;;23.35;76.52
69145;BME280;56251;50.324;17.574;2023-06-22T02:39:39;102154.25;;;23.51;76.39
69145;BME280;56251;50.324;17.574;2023-06-22T02:40:39;102149.84;;;23.59;76.10
69145;BME280;56251;50.324;17.574;2023-06-22T02:42:46;102147.77;;;23.68;75.55
69145;BME280;56251;50.324;17.574;2023-06-22T02:43:45;102152.66;;;23.61;75.69
69145;BME280;56251;50.324;17.574;2023-06-22T02:45:52;102155.70;;;23.55;76.01
69145;BME280;56251;50.324;17.574;2023-06-22T02:46:52;102155.22;;;23.59;75.89
69145;BME280;56251;50.324;17.574;2023-06-22T02:48:59;102158.91;;;23.67;75.73
69145;BME280;56251;50.324;17.574;2023-06-22T02:50:00;102159.35;;;23.75;75.48
69145;BME280;56251;50.324;17.574;2023-06-22T02:52:05;102158.21;;;23.63;75.85
69145;BME280;56251;50.324;17.574;2023-06-22T02:53:11;102155.63;;;23.66;75.71
69145;BME280;56251;50.324;17.574;2023-06-22T02:55:12;102159.92;;;23.70;75.64
69145;BME280;56251;50.324;17.574;2023-06-22T02:56:17;102158.19;;;23.60;76.21
69145;BME280;56251;50.324;17.574;2023-06-22T02:58:18;102156.67;;;23.63;76.20
69145;BME280;56251;50.324;17.574;2023-06-22T02:59:23;102157.24;;;23.69;76.05
69145;BME280;56251;50.324;17.574;2023-06-22T03:01:24;102158.80;;;23.81;75.57
69145;BME280;56251;50.324;17.574;2023-06-22T03:02:30;102155.42;;;23.85;75.71
69145;BME280;56251;50.324;17.574;2023-06-22T03:04:30;102159.70;;;23.86;75.83
69145;BME280;56251;50.324;17.574;2023-06-22T03:05:36;102160.19;;;23.88;75.89
69145;BME280;56251;50.324;17.574;2023-06-22T03:07:37;102163.45;;;23.93;75.61
69145;BME280;56251;50.324;17.574;2023-06-22T03:08:42;102162.63;;;23.93;75.60
69145;BME280;56251;50.324;17.574;2023-06-22T03:10:43;102167.98;;;23.99;75.41
69145;BME280;56251;50.324;17.574;2023-06-22T03:11:48;102165.40;;;24.06;75.11
69145;BME280;56251;50.324;17.574;2023-06-22T03:13:50;102163.34;;;23.91;75.12
69145;BME280;56251;50.324;17.574;2023-06-22T03:14:55;102168.15;;;23.97;75.15
69145;BME280;56251;50.324;17.574;2023-06-22T03:16:58;102162.46;;;24.08;74.96
69145;BME280;56251;50.324;17.574;2023-06-22T03:18:01;102163.76;;;24.19;74.71
69145;BME280;56251;50.324;17.574;2023-06-22T03:20:07;102165.97;;;24.25;74.44
69145;BME280;56251;50.324;17.574;2023-06-22T03:21:07;102171.99;;;24.31;74.30
69145;BME280;56251;50.324;17.574;2023-06-22T03:23:18;102177.08;;;24.23;74.56
69145;BME280;56251;50.324;17.574;2023-06-22T03:24:13;102176.37;;;24.26;74.59
69145;BME280;56251;50.324;17.574;2023-06-22T03:26:24;102176.34;;;24.34;74.25
69145;BME280;56251;50.324;17.574;2023-06-22T03:27:19;102177.55;;;24.36;73.95
69145;BME280;56251;50.324;17.574;2023-06-22T03:29:32;102174.76;;;24.46;73.45
69145;BME280;56251;50.324;17.574;2023-06-22T03:30:25;102173.86;;;24.40;73.46
69145;BME280;56251;50.324;17.574;2023-06-22T03:32:40;102176.02;;;24.40;73.43
69145;BME280;56251;50.324;17.574;2023-06-22T03:33:32;102181.99;;;24.36;73.61
69145;BME280;56251;50.324;17.574;2023-06-22T03:35:46;102186.02;;;24.28;73.60
69145;BME280;56251;50.324;17.574;2023-06-22T03:36:38;102182.69;;;24.25;73.79
69145;BME280;56251;50.324;17.574;2023-06-22T03:38:53;102185.72;;;24.35;73.49
69145;BME280;56251;50.324;17.574;2023-06-22T03:39:44;102186.54;;;24.36;73.41
69145;BME280;56251;50.324;17.574;2023-06-22T03:41:59;102192.28;;;24.48;73.16
69145;BME280;56251;50.324;17.574;2023-06-22T03:42:50;102191.32;;;24.43;73.25
69145;BME280;56251;50.324;17.574;2023-06-22T03:45:06;102197.88;;;24.38;73.21
69145;BME280;56251;50.324;17.574;2023-06-22T03:45:57;102197.29;;;24.36;73.35
69145;BME280;56251;50.324;17.574;2023-06-22T03:48:13;102194.26;;;24.41;73.35
69145;BME280;56251;50.324;17.574;2023-06-22T03:49:03;102198.90;;;24.38;73.43
69145;BME280;56251;50.324;17.574;2023-06-22T03:51:19;102202.55;;;24.30;73.57
69145;BME280;56251;50.324;17.574;2023-06-22T03:52:10;102209.75;;;24.21;74.10
69145;BME280;56251;50.324;17.574;2023-06-22T03:54:25;102209.02;;;24.36;73.83
69145;BME280;56251;50.324;17.574;2023-06-22T03:55:16;102209.80;;;24.42;73.67
69145;BME280;56251;50.324;17.574;2023-06-22T03:57:32;102214.61;;;24.61;73.27
69145;BME280;56251;50.324;17.574;2023-06-22T03:58:23;102218.45;;;24.65;73.23
69145;BME280;56251;50.324;17.574;2023-06-22T04:00:38;102219.93;;;24.68;72.81
69145;BME280;56251;50.324;17.574;2023-06-22T04:01:29;102219.25;;;24.72;72.74
69145;BME280;56251;50.324;17.574;2023-06-22T04:03:45;102223.28;;;24.76;72.46
69145;BME280;56251;50.324;17.574;2023-06-22T04:04:35;102223.56;;;24.77;72.22
69145;BME280;56251;50.324;17.574;2023-06-22T04:06:53;102225.45;;;24.72;71.80
69145;BME280;56251;50.324;17.574;2023-06-22T04:07:41;102226.43;;;24.71;71.92
69145;BME280;56251;50.324;17.574;2023-06-22T04:09:59;102229.63;;;24.84;71.59
69145;BME280;56251;50.324;17.574;2023-06-22T04:10:47;102230.48;;;24.84;71.71
69145;BME280;56251;50.324;17.574;2023-06-22T04:13:05;102226.89;;;24.92;71.56
69145;BME280;56251;50.324;17.574;2023-06-22T04:13:54;102224.07;;;25.04;71.35
69145;BME280;56251;50.324;17.574;2023-06-22T04:16:12;102223.23;;;25.25;71.03
69145;BME280;56251;50.324;17.574;2023-06-22T04:17:01;102226.56;;;25.28;70.79
69145;BME280;56251;50.324;17.574;2023-06-22T04:19:18;102228.34;;;25.33;70.66
69145;BME280;56251;50.324;17.574;2023-06-22T04:20:08;102228.61;;;25.34;70.67
69145;BME280;56251;50.324;17.574;2023-06-22T04:22:24;102231.06;;;25.37;70.65
69145;BME280;56251;50.324;17.574;2023-06-22T04:23:14;102228.62;;;25.38;70.63
69145;BME280;56251;50.324;17.574;2023-06-22T04:25:31;102235.42;;;25.53;69.81
69145;BME280;56251;50.324;17.574;2023-06-22T04:26:20;102236.03;;;25.57;69.69
69145;BME280;56251;50.324;17.574;2023-06-22T04:28:37;102237.54;;;25.80;69.19
69145;BME280;56251;50.324;17.574;2023-06-22T04:29:27;102233.72;;;25.92;69.11
69145;BME280;56251;50.324;17.574;2023-06-22T04:31:43;102229.47;;;26.07;68.37
69145;BME280;56251;50.324;17.574;2023-06-22T04:32:35;102232.16;;;26.09;68.20
69145;BME280;56251;50.324;17.574;2023-06-22T04:34:49;102233.20;;;26.14;67.99
69145;BME280;56251;50.324;17.574;2023-06-22T04:35:46;102235.66;;;26.17;67.69
69145;BME280;56251;50.324;17.574;2023-06-22T04:37:58;102234.93;;;26.24;67.39
69145;BME280;56251;50.324;17.574;2023-06-22T04:38:52;102236.33;;;26.28;67.26
69145;BME280;56251;50.324;17.574;2023-06-22T04:41:04;102231.48;;;26.35;66.89
69145;BME280;56251;50.324;17.574;2023-06-22T04:41:58;102231.84;;;26.32;66.89
69145;BME280;56251;50.324;17.574;2023-06-22T04:44:12;102232.69;;;26.35;66.78
69145;BME280;56251;50.324;17.574;2023-06-22T04:45:09;102232.19;;;26.44;66.60
69145;BME280;56251;50.324;17.574;2023-06-22T04:47:22;102230.00;;;26.53;66.40
69145;BME280;56251;50.324;17.574;2023-06-22T04:48:16;102229.81;;;26.59;66.44
69145;BME280;56251;50.324;17.574;2023-06-22T04:50:28;102226.13;;;26.71;65.95
69145;BME280;56251;50.324;17.574;2023-06-22T04:51:22;102227.44;;;26.74;65.72
69145;BME280;56251;50.324;17.574;2023-06-22T04:53:34;102227.90;;;27.09;65.04
69145;BME280;56251;50.324;17.574;2023-06-22T04:54:29;102232.27;;;27.33;64.46
69145;BME280;56251;50.324;17.574;2023-06-22T04:56:40;102231.03;;;27.69;62.93
69145;BME280;56251;50.324;17.574;2023-06-22T04:57:39;102228.79;;;27.86;62.08
69145;BME280;56251;50.324;17.574;2023-06-22T04:59:47;102224.54;;;28.14;61.25
69145;BME280;56251;50.324;17.574;2023-06-22T05:00:46;102223.64;;;28.36;60.45
69145;BME280;56251;50.324;17.574;2023-06-22T05:02:53;102215.70;;;28.36;59.05
69145;BME280;56251;50.324;17.574;2023-06-22T05:03:59;102214.58;;;28.22;58.83
69145;BME280;56251;50.324;17.574;2023-06-22T05:06:07;102220.09;;;28.07;59.54
69145;BME280;56251;50.324;17.574;2023-06-22T05:07:06;102222.61;;;28.36;59.23
69145;BME280;56251;50.324;17.574;2023-06-22T05:09:13;102224.31;;;28.68;57.26
69145;BME280;56251;50.324;17.574;2023-06-22T05:10:13;102223.58;;;28.90;56.81
69145;BME280;56251;50.324;17.574;2023-06-22T05:12:20;102227.67;;;29.43;55.31
69145;BME280;56251;50.324;17.574;2023-06-22T05:13:19;102228.30;;;29.66;54.84
69145;BME280;56251;50.324;17.574;2023-06-22T05:15:26;102221.93;;;29.93;53.15
69145;BME280;56251;50.324;17.574;2023-06-22T05:16:27;102222.61;;;30.12;53.31
69145;BME280;56251;50.324;17.574;2023-06-22T05:18:34;102214.43;;;30.95;51.25
69145;BME280;56251;50.324;17.574;2023-06-22T05:19:33;102215.04;;;31.13;50.15
69145;BME280;56251;50.324;17.574;2023-06-22T05:21:41;102218.84;;;31.76;48.63
69145;BME280;56251;50.324;17.574;2023-06-22T05:22:45;102220.55;;;31.88;48.10
69145;BME280;56251;50.324;17.574;2023-06-22T05:24:48;102223.84;;;31.80;47.71
69145;BME280;56251;50.324;17.574;2023-06-22T05:25:51;102223.92;;;31.87;47.41
69145;BME280;56251;50.324;17.574;2023-06-22T05:27:54;102223.61;;;32.46;46.51
69145;BME280;56251;50.324;17.574;2023-06-22T05:28:58;102225.66;;;32.84;46.38
69145;BME280;56251;50.324;17.574;2023-06-22T05:31:00;102231.23;;;33.09;44.58
69145;BME280;56251;50.324;17.574;2023-06-22T05:32:05;102227.27;;;33.31;43.86
69145;BME280;56251;50.324;17.574;2023-06-22T05:34:07;102233.45;;;33.29;43.55
69145;BME280;56251;50.324;17.574;2023-06-22T05:35:12;102233.65;;;33.31;43.81
69145;BME280;56251;50.324;17.574;2023-06-22T05:37:13;102233.44;;;33.68;42.94
69145;BME280;56251;50.324;17.574;2023-06-22T05:38:18;102233.30;;;33.89;42.58
69145;BME280;56251;50.324;17.574;2023-06-22T05:40:26;102233.98;;;34.16;41.90
69145;BME280;56251;50.324;17.574;2023-06-22T05:41:50;102236.13;;;34.38;41.65
69145;BME280;56251;50.324;17.574;2023-06-22T05:44:07;102235.99;;;34.46;41.29
69145;BME280;56251;50.324;17.574;2023-06-22T05:44:53;102235.22;;;34.46;41.04
69145;BME280;56251;50.324;17.574;2023-06-22T05:47:14;102239.35;;;34.42;41.11
69145;BME280;56251;50.324;17.574;2023-06-22T05:47:59;102239.08;;;34.51;40.82
69145;BME280;56251;50.324;17.574;2023-06-22T05:50:20;102235.88;;;35.17;40.61
69145;BME280;56251;50.324;17.574;2023-06-22T05:51:09;102231.62;;;35.27;40.19
69145;BME280;56251;50.324;17.574;2023-06-22T05:53:26;102236.27;;;35.55;39.06
69145;BME280;56251;50.324;17.574;2023-06-22T05:54:15;102236.02;;;35.58;39.08
69145;BME280;56251;50.324;17.574;2023-06-22T05:56:33;102236.00;;;35.93;38.49
69145;BME280;56251;50.324;17.574;2023-06-22T05:57:23;102236.40;;;35.99;38.11
69145;BME280;56251;50.324;17.574;2023-06-22T05:59:39;102236.84;;;36.28;37.49
69145;BME280;56251;50.324;17.574;2023-06-22T06:00:29;102237.27;;;35.97;37.58
69145;BME280;56251;50.324;17.574;2023-06-22T06:02:45;102236.70;;;36.39;37.60
69145;BME280;56251;50.324;17.574;2023-06-22T06:03:36;102239.38;;;36.56;36.80
69145;BME280;56251;50.324;17.574;2023-06-22T06:05:52;102239.23;;;36.41;36.63
69145;BME280;56251;50.324;17.574;2023-06-22T06:06:44;102240.66;;;36.12;37.19
69145;BME280;56251;50.324;17.574;2023-06-22T06:08:58;102245.04;;;35.28;38.52
69145;BME280;56251;50.324;17.574;2023-06-22T06:09:50;102247.40;;;35.15;38.57
69145;BME280;56251;50.324;17.574;2023-06-22T06:12:05;102234.16;;;35.37;38.67
69145;BME280;56251;50.324;17.574;2023-06-22T06:12:56;102233.38;;;35.76;38.41
69145;BME280;56251;50.324;17.574;2023-06-22T06:15:12;102228.97;;;36.43;37.28
69145;BME280;56251;50.324;17.574;2023-06-22T06:16:03;102226.72;;;36.50;37.15
69145;BME280;56251;50.324;17.574;2023-06-22T06:18:18;102228.48;;;36.90;36.47
69145;BME280;56251;50.324;17.574;2023-06-22T06:19:18;102231.12;;;36.78;36.16
69145;BME280;56251;50.324;17.574;2023-06-22T06:21:24;102228.44;;;36.46;36.89
69145;BME280;56251;50.324;17.574;2023-06-22T06:22:32;102226.08;;;35.98;37.31
69145;BME280;56251;50.324;17.574;2023-06-22T06:24:31;102225.04;;;35.77;37.53
69145;BME280;56251;50.324;17.574;2023-06-22T06:25:38;102223.48;;;35.64;37.67
69145;BME280;56251;50.324;17.574;2023-06-22T06:27:37;102228.15;;;35.00;38.72
69145;BME280;56251;50.324;17.574;2023-06-22T06:28:45;102227.35;;;34.97;38.80
69145;BME280;56251;50.324;17.574;2023-06-22T06:30:43;102228.58;;;34.64;38.99
69145;BME280;56251;50.324;17.574;2023-06-22T06:31:52;102230.66;;;34.33;39.77
69145;BME280;56251;50.324;17.574;2023-06-22T06:33:51;102229.53;;;34.10;40.31
69145;BME280;56251;50.324;17.574;2023-06-22T06:34:59;102230.64;;;33.92;40.45
69145;BME280;56251;50.324;17.574;2023-06-22T06:36:57;102230.77;;;33.68;41.14
69145;BME280;56251;50.324;17.574;2023-06-22T06:38:05;102229.59;;;33.61;41.29
69145;BME280;56251;50.324;17.574;2023-06-22T06:40:09;102233.19;;;33.59;41.50
69145;BME280;56251;50.324;17.574;2023-06-22T06:41:11;102228.90;;;33.61;41.80
69145;BME280;56251;50.324;17.574;2023-06-22T06:43:18;102227.45;;;33.79;42.02
69145;BME280;56251;50.324;17.574;2023-06-22T06:44:24;102220.52;;;33.72;41.36
69145;BME280;56251;50.324;17.574;2023-06-22T06:46:25;102224.00;;;34.09;40.92
69145;BME280;56251;50.324;17.574;2023-06-22T06:47:30;102226.66;;;34.29;40.61
69145;BME280;56251;50.324;17.574;2023-06-22T06:49:31;102229.39;;;34.44;40.09
69145;BME280;56251;50.324;17.574;2023-06-22T06:50:36;102228.55;;;34.82;39.74
69145;BME280;56251;50.324;17.574;2023-06-22T06:52:38;102228.66;;;34.94;38.89
69145;BME280;56251;50.324;17.574;2023-06-22T06:53:43;102231.34;;;35.09;38.49
69145;BME280;56251;50.324;17.574;2023-06-22T06:55:45;102231.44;;;34.83;39.18
69145;BME280;56251;50.324;17.574;2023-06-22T06:56:49;102236.62;;;34.42;40.17
69145;BME280;56251;50.324;17.574;2023-06-22T06:58:51;102234.84;;;34.19;40.86
69145;BME280;56251;50.324;17.574;2023-06-22T06:59:56;102236.73;;;34.23;41.41
69145;BME280;56251;50.324;17.574;2023-06-22T07:02:03;102242.53;;;34.59;39.72
69145;BME280;56251;50.324;17.574;2023-06-22T07:03:06;102242.01;;;34.59;40.19
69145;BME280;56251;50.324;17.574;2023-06-22T07:05:11;102243.52;;;34.78;39.89
69145;BME280;56251;50.324;17.574;2023-06-22T07:06:17;102244.69;;;34.27;39.49
69145;BME280;56251;50.324;17.574;2023-06-22T07:08:21;102245.66;;;34.05;40.70
69145;BME280;56251;50.324;17.574;2023-06-22T07:09:24;102243.48;;;34.20;40.70
69145;BME280;56251;50.324;17.574;2023-06-22T07:11:27;102247.17;;;34.61;39.59
69145;BME280;56251;50.324;17.574;2023-06-22T07:12:31;102249.05;;;34.83;39.67
69145;BME280;56251;50.324;17.574;2023-06-22T07:14:34;102245.84;;;34.95;40.25
69145;BME280;56251;50.324;17.574;2023-06-22T07:15:40;102248.18;;;34.73;39.96
69145;BME280;56251;50.324;17.574;2023-06-22T07:17:43;102243.59;;;34.98;39.36
69145;BME280;56251;50.324;17.574;2023-06-22T07:18:46;102246.31;;;35.10;39.81
69145;BME280;56251;50.324;17.574;2023-06-22T07:20:50;102242.24;;;35.50;39.23
69145;BME280;56251;50.324;17.574;2023-06-22T07:21:59;102252.64;;;35.25;39.45
69145;BME280;56251;50.324;17.574;2023-06-22T07:23:56;102251.41;;;35.48;39.10
69145;BME280;56251;50.324;17.574;2023-06-22T07:25:10;102255.09;;;35.38;38.95
69145;BME280;56251;50.324;17.574;2023-06-22T07:27:03;102255.41;;;35.03;39.11
69145;BME280;56251;50.324;17.574;2023-06-22T07:28:18;102258.53;;;34.97;39.42
69145;BME280;56251;50.324;17.574;2023-06-22T07:30:12;102258.41;;;35.02;39.41
69145;BME280;56251;50.324;17.574;2023-06-22T07:31:25;102261.61;;;34.88;39.83
69145;BME280;56251;50.324;17.574;2023-06-22T07:33:18;102260.82;;;34.68;39.85
69145;BME280;56251;50.324;17.574;2023-06-22T07:34:32;102264.03;;;34.63;39.99
69145;BME280;56251;50.324;17.574;2023-06-22T07:36:25;102269.76;;;34.15;40.61
69145;BME280;56251;50.324;17.574;2023-06-22T07:37:43;102275.86;;;34.04;41.12
69145;BME280;56251;50.324;17.574;2023-06-22T07:39:31;102273.91;;;33.96;41.29
69145;BME280;56251;50.324;17.574;2023-06-22T07:40:50;102273.65;;;34.16;41.00
69145;BME280;56251;50.324;17.574;2023-06-22T07:42:37;102271.97;;;34.42;41.11
69145;BME280;56251;50.324;17.574;2023-06-22T07:43:57;102270.98;;;34.47;40.77
69145;BME280;56251;50.324;17.574;2023-06-22T07:45:48;102277.18;;;33.74;41.17
69145;BME280;56251;50.324;17.574;2023-06-22T07:47:04;102273.71;;;33.59;41.90
69145;BME280;56251;50.324;17.574;2023-06-22T07:48:59;102265.84;;;33.51;42.57
69145;BME280;56251;50.324;17.574;2023-06-22T07:50:10;102262.23;;;33.43;42.44
69145;BME280;56251;50.324;17.574;2023-06-22T07:52:06;102261.13;;;33.23;43.52
69145;BME280;56251;50.324;17.574;2023-06-22T07:53:17;102258.49;;;33.37;42.90
69145;BME280;56251;50.324;17.574;2023-06-22T07:55:13;102257.27;;;33.83;42.09
69145;BME280;56251;50.324;17.574;2023-06-22T07:56:23;102255.79;;;34.03;42.64
69145;BME280;56251;50.324;17.574;2023-06-22T07:58:19;102254.72;;;34.38;41.07
69145;BME280;56251;50.324;17.574;2023-06-22T07:59:29;102254.23;;;34.36;40.15
69145;BME280;56251;50.324;17.574;2023-06-22T08:01:29;102261.01;;;34.50;40.48
69145;BME280;56251;50.324;17.574;2023-06-22T08:02:36;102262.23;;;34.82;40.12
69145;BME280;56251;50.324;17.574;2023-06-22T08:04:38;102264.74;;;34.94;39.14
69145;BME280;56251;50.324;17.574;2023-06-22T08:05:47;102258.73;;;34.50;38.86
69145;BME280;56251;50.324;17.574;2023-06-22T08:07:44;102260.31;;;34.18;39.72
69145;BME280;56251;50.324;17.574;2023-06-22T08:08:57;102257.95;;;34.19;40.05